createdAt,value
2022-12-13T00:01:57.518Z,99.90
2022-12-13T00:04:27.244Z,99.90
2022-12-13T00:06:54.582Z,99.90
2022-12-13T00:09:22.248Z,99.90
2022-12-13T00:11:50.385Z,99.90
2022-12-13T00:14:17.879Z,99.90
2022-12-13T00:16:48.093Z,99.90
2022-12-13T00:19:16.204Z,99.90
2022-12-13T00:21:43.990Z,99.90
2022-12-13T00:24:11.146Z,99.90
2022-12-13T00:26:38.410Z,99.90
2022-12-13T00:29:07.509Z,99.90
2022-12-13T00:34:25.934Z,99.90
2022-12-13T00:36:59.256Z,99.90
2022-12-13T00:39:26.925Z,99.90
2022-12-13T00:41:53.976Z,99.90
2022-12-13T00:44:21.067Z,99.90
2022-12-13T00:46:48.378Z,99.90
2022-12-13T00:49:15.914Z,99.90
2022-12-13T00:51:43.142Z,99.90
2022-12-13T00:54:10.734Z,99.90
2022-12-13T00:56:38.340Z,99.90
2022-12-13T00:59:05.532Z,99.90
2022-12-13T01:01:36.656Z,99.90
2022-12-13T01:04:06.206Z,99.90
2022-12-13T01:06:40.935Z,99.90
2022-12-13T01:09:19.554Z,99.90
2022-12-13T01:11:47.602Z,99.90
2022-12-13T01:14:16.384Z,99.90
2022-12-13T01:16:43.644Z,99.90
2022-12-13T01:19:10.764Z,99.90
2022-12-13T01:21:37.909Z,99.90
2022-12-13T01:24:06.553Z,99.90
2022-12-13T01:26:34.097Z,99.90
2022-12-13T01:29:01.303Z,99.90
2022-12-13T01:31:28.609Z,99.90
2022-12-13T01:33:55.694Z,99.90
2022-12-13T01:36:27.014Z,99.90
2022-12-13T01:38:54.307Z,99.90
2022-12-13T01:41:27.903Z,99.90
2022-12-13T01:44:01.297Z,99.90
2022-12-13T01:46:30.184Z,99.90
2022-12-13T01:49:02.891Z,99.90
2022-12-13T01:51:51.381Z,99.90
2022-12-13T01:54:33.520Z,99.90
2022-12-13T01:57:06.718Z,99.90
2022-12-13T01:59:40.433Z,99.90
2022-12-13T02:02:10.035Z,99.90
2022-12-13T02:04:59.996Z,99.90
2022-12-13T02:07:32.690Z,99.90
2022-12-13T02:10:02.556Z,99.90
2022-12-13T02:12:34.091Z,99.90
2022-12-13T02:15:11.925Z,99.90
2022-12-13T02:18:14.693Z,99.90
2022-12-13T02:21:03.247Z,99.90
2022-12-13T02:24:17.944Z,99.90
2022-12-13T02:27:00.026Z,99.90
2022-12-13T02:30:14.912Z,99.90
2022-12-13T02:33:09.150Z,99.90
2022-12-13T02:36:07.521Z,99.90
2022-12-13T02:39:14.605Z,99.90
2022-12-13T02:41:57.404Z,99.90
2022-12-13T02:44:34.869Z,99.90
2022-12-13T02:47:22.509Z,99.90
2022-12-13T02:49:56.185Z,99.90
2022-12-13T02:52:27.980Z,99.90
2022-12-13T02:54:56.405Z,99.90
2022-12-13T02:57:30.395Z,99.90
2022-12-13T03:00:12.343Z,99.90
2022-12-13T03:03:24.261Z,99.90
2022-12-13T03:06:34.059Z,99.90
2022-12-13T03:09:28.625Z,99.90
2022-12-13T03:13:08.721Z,99.90
2022-12-13T03:15:44.195Z,99.90
2022-12-13T03:18:20.155Z,99.90
2022-12-13T03:21:05.669Z,99.90
2022-12-13T03:23:33.001Z,99.90
2022-12-13T03:26:10.814Z,99.90
2022-12-13T03:28:39.250Z,99.90
2022-12-13T03:31:07.076Z,99.90
2022-12-13T03:33:34.543Z,99.90
2022-12-13T03:36:02.730Z,99.90
2022-12-13T03:38:30.449Z,99.90
2022-12-13T03:41:10.744Z,99.90
2022-12-13T03:43:38.962Z,99.90
2022-12-13T03:46:09.405Z,99.90
2022-12-13T03:48:36.825Z,99.90
2022-12-13T03:51:04.166Z,99.90
2022-12-13T03:53:32.396Z,99.90
2022-12-13T03:56:03.532Z,99.90
2022-12-13T03:58:36.503Z,99.90
2022-12-13T04:01:11.048Z,99.90
2022-12-13T04:03:40.569Z,99.90
2022-12-13T04:06:11.044Z,99.90
2022-12-13T04:08:39.994Z,99.90
2022-12-13T04:11:28.675Z,99.90
2022-12-13T04:13:56.951Z,99.90
2022-12-13T04:16:24.770Z,99.90
2022-12-13T04:18:52.132Z,99.90
2022-12-13T04:21:19.305Z,99.90
2022-12-13T04:23:46.427Z,99.90
2022-12-13T04:26:13.856Z,99.90
2022-12-13T04:28:40.855Z,99.90
2022-12-13T04:31:08.032Z,99.90
2022-12-13T04:33:35.199Z,99.90
2022-12-13T04:36:05.729Z,99.90
2022-12-13T04:38:33.025Z,99.90
2022-12-13T04:41:12.665Z,99.90
2022-12-13T04:43:39.716Z,99.90
2022-12-13T04:46:06.936Z,99.90
2022-12-13T04:48:34.601Z,99.90
2022-12-13T04:51:02.190Z,99.90
2022-12-13T04:53:30.229Z,99.90
2022-12-13T04:55:58.237Z,99.90
2022-12-13T04:58:25.580Z,99.90
2022-12-13T05:00:52.701Z,99.90
2022-12-13T05:03:19.867Z,99.90
2022-12-13T05:05:46.969Z,99.90
2022-12-13T05:08:17.168Z,99.90
2022-12-13T05:10:44.217Z,99.90
2022-12-13T05:13:11.324Z,99.90
2022-12-13T05:15:50.770Z,99.90
2022-12-13T05:18:20.813Z,99.90
2022-12-13T05:20:47.839Z,99.90
2022-12-13T05:23:14.965Z,99.90
2022-12-13T05:25:53.120Z,99.90
2022-12-13T05:28:28.270Z,99.90
2022-12-13T05:30:59.790Z,99.90
2022-12-13T05:33:27.064Z,99.90
2022-12-13T05:35:59.804Z,99.90
2022-12-13T05:38:28.945Z,99.90
2022-12-13T05:40:56.127Z,99.90
2022-12-13T05:43:24.184Z,99.90
2022-12-13T05:46:09.618Z,99.90
2022-12-13T05:48:36.736Z,99.90
2022-12-13T05:51:10.135Z,99.90
2022-12-13T05:53:42.741Z,99.90
2022-12-13T05:56:11.228Z,99.90
2022-12-13T05:58:40.052Z,99.90
2022-12-13T06:01:12.913Z,99.90
2022-12-13T06:03:41.875Z,99.90
2022-12-13T06:06:12.054Z,99.90
2022-12-13T06:08:39.782Z,99.90
2022-12-13T06:11:10.859Z,99.90
2022-12-13T06:13:43.486Z,99.90
2022-12-13T06:16:22.869Z,99.90
2022-12-13T06:19:03.359Z,99.90
2022-12-13T06:21:41.300Z,99.90
2022-12-13T06:24:17.735Z,99.90
2022-12-13T06:26:46.007Z,99.90
2022-12-13T06:29:24.040Z,99.90
2022-12-13T06:32:01.804Z,99.90
2022-12-13T06:34:33.542Z,99.90
2022-12-13T06:37:04.348Z,99.90
2022-12-13T06:39:32.769Z,99.90
2022-12-13T06:42:02.895Z,99.90
2022-12-13T06:44:30.039Z,99.90
2022-12-13T06:47:11.183Z,99.90
2022-12-13T06:49:43.128Z,99.90
2022-12-13T06:52:13.083Z,99.90
2022-12-13T06:54:42.493Z,99.90
2022-12-13T06:57:13.344Z,99.90
2022-12-13T06:59:41.197Z,99.90
2022-12-13T07:02:24.192Z,99.90
2022-12-13T07:04:54.077Z,99.90
2022-12-13T07:07:21.236Z,99.90
2022-12-13T07:09:48.314Z,99.90
2022-12-13T07:12:15.383Z,99.90
2022-12-13T07:14:42.777Z,99.90
2022-12-13T07:17:10.904Z,99.90
2022-12-13T07:19:38.149Z,99.90
2022-12-13T07:22:06.045Z,99.90
2022-12-13T07:24:36.619Z,99.90
2022-12-13T07:27:04.501Z,99.90
2022-12-13T07:29:33.013Z,99.90
2022-12-13T07:32:01.505Z,99.90
2022-12-13T07:34:30.567Z,99.90
2022-12-13T07:36:57.905Z,99.90
2022-12-13T07:39:26.338Z,99.90
2022-12-13T07:41:56.724Z,99.90
2022-12-13T07:44:25.015Z,99.90
2022-12-13T07:46:52.887Z,99.90
2022-12-13T07:49:20.092Z,99.90
2022-12-13T07:51:47.378Z,99.90
2022-12-13T07:54:17.924Z,99.90
2022-12-13T07:56:45.740Z,99.90
2022-12-13T07:59:13.474Z,99.90
2022-12-13T08:01:40.749Z,99.90
2022-12-13T08:04:08.160Z,99.90
2022-12-13T08:06:37.901Z,99.90
2022-12-13T08:09:06.067Z,99.90
2022-12-13T08:11:33.359Z,99.90
2022-12-13T08:14:00.684Z,99.90
2022-12-13T08:16:29.680Z,99.90
2022-12-13T08:19:02.365Z,99.90
2022-12-13T08:21:57.808Z,99.90
2022-12-13T08:24:29.190Z,99.90
2022-12-13T08:27:03.861Z,99.90
2022-12-13T08:29:35.949Z,99.90
2022-12-13T08:32:10.651Z,99.90
2022-12-13T08:34:38.774Z,99.90
2022-12-13T08:37:06.202Z,99.90
2022-12-13T08:39:36.780Z,99.90
2022-12-13T08:42:15.885Z,99.90
2022-12-13T08:44:51.021Z,99.90
2022-12-13T08:47:26.264Z,99.90
2022-12-13T08:50:04.206Z,99.90
2022-12-13T08:52:39.155Z,99.90
2022-12-13T08:55:13.211Z,99.90
2022-12-13T08:57:42.674Z,99.90
2022-12-13T09:00:16.759Z,99.90
2022-12-13T09:02:44.194Z,99.90
2022-12-13T09:05:13.025Z,99.90
2022-12-13T09:07:41.291Z,99.90
2022-12-13T09:10:26.010Z,99.90
2022-12-13T09:13:01.675Z,99.90
2022-12-13T09:15:34.545Z,99.90
2022-12-13T09:18:05.018Z,99.90
2022-12-13T09:20:40.856Z,99.90
2022-12-13T09:23:13.909Z,99.90
2022-12-13T09:25:56.076Z,99.90
2022-12-13T09:28:37.510Z,99.90
2022-12-13T09:31:14.543Z,99.90
2022-12-13T09:33:42.525Z,99.90
2022-12-13T09:36:14.287Z,99.90
2022-12-13T09:38:41.415Z,99.90
2022-12-13T09:41:29.456Z,99.90
2022-12-13T09:44:32.994Z,99.90
2022-12-13T09:47:23.067Z,99.90
2022-12-13T09:49:53.607Z,99.90
2022-12-13T09:52:25.131Z,99.90
2022-12-13T09:54:57.589Z,99.90
2022-12-13T09:57:33.849Z,99.90
2022-12-13T10:00:24.230Z,99.90
2022-12-13T10:02:59.102Z,99.90
2022-12-13T10:05:40.399Z,99.90
2022-12-13T10:08:20.888Z,99.90
2022-12-13T10:10:52.072Z,99.90
2022-12-13T10:13:22.005Z,99.90
2022-12-13T10:15:58.964Z,99.90
2022-12-13T10:18:37.598Z,99.90
2022-12-13T10:21:16.688Z,99.90
2022-12-13T10:24:22.863Z,99.90
2022-12-13T10:26:38.014Z,99.90
2022-12-13T10:29:06.974Z,99.90
2022-12-13T10:31:46.664Z,99.90
2022-12-13T10:34:37.515Z,99.90
2022-12-13T10:37:36.023Z,99.90
2022-12-13T10:40:04.659Z,99.90
2022-12-13T10:42:34.037Z,99.90
2022-12-13T10:45:16.089Z,99.90
2022-12-13T10:47:51.141Z,99.90
2022-12-13T10:50:30.080Z,99.90
2022-12-13T10:53:00.582Z,99.90
2022-12-13T10:55:38.057Z,99.90
2022-12-13T10:58:09.498Z,99.90
2022-12-13T11:00:45.143Z,99.90
2022-12-13T11:03:33.322Z,99.90
2022-12-13T11:06:14.373Z,99.90
2022-12-13T11:08:41.770Z,99.90
2022-12-13T11:11:10.060Z,99.90
2022-12-13T11:13:46.780Z,99.90
2022-12-13T11:16:39.946Z,99.90
2022-12-13T11:19:25.345Z,99.90
2022-12-13T11:21:54.420Z,99.90
2022-12-13T11:24:31.706Z,99.90
2022-12-13T11:27:16.773Z,99.90
2022-12-13T11:30:23.933Z,99.90
2022-12-13T11:32:54.671Z,99.90
2022-12-13T11:36:08.452Z,99.90
2022-12-13T11:39:08.820Z,99.90
2022-12-13T11:42:14.371Z,99.90
2022-12-13T11:45:22.095Z,99.90
2022-12-13T11:48:01.867Z,98.90
2022-12-13T11:50:46.872Z,97.90
2022-12-13T11:53:39.900Z,97.40
2022-12-13T11:56:23.833Z,96.50
2022-12-13T11:59:28.454Z,96.90
2022-12-13T12:02:24.675Z,96.40
2022-12-13T12:05:00.762Z,94.80
2022-12-13T12:08:05.246Z,95.30
2022-12-13T12:10:49.663Z,95.30
2022-12-13T12:13:50.786Z,94.80
2022-12-13T12:16:28.577Z,95.00
2022-12-13T12:18:55.919Z,94.80
2022-12-13T12:24:44.554Z,94.30
2022-12-13T12:27:34.515Z,93.40
2022-12-13T12:30:23.114Z,93.60
2022-12-13T12:33:06.896Z,92.70
2022-12-13T12:35:56.883Z,93.10
2022-12-13T12:38:54.283Z,93.20
2022-12-13T12:42:08.284Z,93.00
2022-12-13T12:45:17.398Z,93.20
2022-12-13T12:51:18.563Z,92.60
2022-12-13T12:54:05.274Z,93.00
2022-12-13T12:56:44.749Z,92.50
2022-12-13T12:59:29.584Z,92.10
2022-12-13T13:02:16.001Z,92.00
2022-12-13T13:04:54.672Z,92.00
2022-12-13T13:07:39.652Z,92.50
2022-12-13T13:10:16.856Z,92.10
2022-12-13T13:13:12.717Z,91.70
2022-12-13T13:15:40.328Z,91.50
2022-12-13T13:19:06.705Z,91.60
2022-12-13T13:22:01.982Z,91.70
2022-12-13T13:24:34.686Z,91.30
2022-12-13T13:27:30.204Z,91.00
2022-12-13T13:30:23.868Z,90.40
2022-12-13T13:32:54.465Z,90.70
2022-12-13T13:35:33.717Z,90.90
2022-12-13T13:38:23.026Z,91.20
2022-12-13T13:40:51.015Z,91.30
2022-12-13T13:43:32.554Z,91.40
2022-12-13T13:46:11.035Z,91.10
2022-12-13T13:49:00.768Z,91.00
2022-12-13T13:52:46.752Z,91.10
2022-12-13T13:55:43.760Z,90.60
2022-12-13T13:59:06.403Z,90.50
2022-12-13T14:02:23.216Z,91.00
2022-12-13T14:05:41.131Z,92.00
2022-12-13T14:08:46.697Z,92.20
2022-12-13T14:11:47.443Z,92.60
2022-12-13T14:15:11.859Z,92.80
2022-12-13T14:18:02.684Z,93.00
2022-12-13T14:20:39.088Z,92.90
2022-12-13T14:23:34.173Z,93.00
2022-12-13T14:26:31.642Z,93.10
2022-12-13T14:29:02.645Z,93.30
2022-12-13T14:31:41.033Z,93.60
2022-12-13T14:34:21.225Z,94.30
2022-12-13T14:37:01.927Z,94.90
2022-12-13T14:39:32.274Z,95.50
2022-12-13T14:42:02.371Z,95.80
2022-12-13T14:44:35.773Z,95.80
2022-12-13T14:47:07.388Z,96.40
2022-12-13T14:49:48.830Z,96.70
2022-12-13T14:52:38.991Z,97.10
2022-12-13T14:55:09.126Z,97.50
2022-12-13T14:57:39.401Z,97.90
2022-12-13T15:00:39.544Z,98.20
2022-12-13T15:03:07.390Z,98.70
2022-12-13T15:05:50.585Z,99.00
2022-12-13T15:08:21.855Z,99.30
2022-12-13T15:10:59.707Z,99.70
2022-12-13T15:13:35.547Z,99.90
2022-12-13T15:16:11.087Z,99.90
2022-12-13T15:18:38.686Z,99.90
2022-12-13T15:21:23.793Z,99.90
2022-12-13T15:23:53.133Z,99.90
2022-12-13T15:26:28.621Z,99.90
2022-12-13T15:29:09.505Z,99.90
2022-12-13T15:31:39.871Z,99.90
2022-12-13T15:34:28.979Z,99.90
2022-12-13T15:37:05.599Z,99.90
2022-12-13T15:39:47.867Z,99.90
2022-12-13T15:42:22.180Z,99.90
2022-12-13T15:44:57.635Z,99.90
2022-12-13T15:47:27.919Z,99.90
2022-12-13T15:49:59.132Z,99.90
2022-12-13T15:52:40.742Z,99.90
2022-12-13T15:55:08.322Z,99.90
2022-12-13T15:57:54.300Z,99.90
2022-12-13T16:00:29.222Z,99.90
2022-12-13T16:03:09.914Z,99.90
2022-12-13T16:05:54.933Z,99.90
2022-12-13T16:08:31.447Z,99.90
2022-12-13T16:11:00.032Z,99.90
2022-12-13T16:13:35.555Z,99.90
2022-12-13T16:16:30.274Z,99.90
2022-12-13T16:19:00.378Z,99.90
2022-12-13T16:21:28.853Z,99.90
2022-12-13T16:23:56.038Z,99.90
2022-12-13T16:26:29.258Z,99.90
2022-12-13T16:29:00.305Z,99.90
2022-12-13T16:31:35.613Z,99.90
2022-12-13T16:34:04.402Z,99.90
2022-12-13T16:36:31.946Z,99.90
2022-12-13T16:38:59.339Z,99.90
2022-12-13T16:41:26.890Z,99.90
2022-12-13T16:44:01.785Z,99.90
2022-12-13T16:47:16.657Z,99.90
2022-12-13T16:49:27.401Z,99.90
2022-12-13T16:51:55.867Z,99.90
2022-12-13T16:54:25.722Z,99.90
2022-12-13T16:56:54.234Z,99.90
2022-12-13T16:59:25.118Z,99.90
2022-12-13T17:01:53.553Z,99.90
2022-12-13T17:04:24.412Z,99.90
2022-12-13T17:06:55.471Z,99.90
2022-12-13T17:09:25.509Z,99.90
2022-12-13T17:11:56.516Z,99.90
2022-12-13T17:14:24.307Z,99.90
2022-12-13T17:16:52.393Z,99.90
2022-12-13T17:19:20.475Z,99.90
2022-12-13T17:21:50.014Z,99.90
2022-12-13T17:24:24.210Z,99.90
2022-12-13T17:26:58.600Z,99.90
2022-12-13T17:29:26.892Z,99.90
2022-12-13T17:31:59.666Z,99.90
2022-12-13T17:34:28.109Z,99.90
2022-12-13T17:36:55.959Z,99.90
2022-12-13T17:39:25.821Z,99.90
2022-12-13T17:41:55.342Z,99.90
2022-12-13T17:44:25.357Z,99.90
2022-12-13T17:46:55.626Z,99.90
2022-12-13T17:49:24.944Z,99.90
2022-12-13T17:51:54.347Z,99.90
2022-12-13T17:54:26.749Z,99.90
2022-12-13T17:56:54.941Z,99.90
2022-12-13T17:59:23.963Z,99.90
2022-12-13T18:01:52.643Z,99.90
2022-12-13T18:04:21.461Z,99.90
2022-12-13T18:06:53.391Z,99.90
2022-12-13T18:09:24.517Z,99.90
2022-12-13T18:11:52.523Z,99.90
2022-12-13T18:14:20.488Z,99.90
2022-12-13T18:16:48.946Z,99.90
2022-12-13T18:19:17.025Z,99.90
2022-12-13T18:21:45.056Z,99.90
2022-12-13T18:24:13.016Z,99.90
2022-12-13T18:26:41.339Z,99.90
2022-12-13T18:29:09.262Z,99.90
2022-12-13T18:31:38.372Z,99.90
2022-12-13T18:34:06.107Z,99.90
2022-12-13T18:36:35.233Z,99.90
2022-12-13T18:39:04.596Z,99.90
2022-12-13T18:41:32.850Z,99.90
2022-12-13T18:44:04.041Z,99.90
2022-12-13T18:46:35.720Z,99.90
2022-12-13T18:49:04.588Z,99.90
2022-12-13T18:51:34.856Z,99.90
2022-12-13T18:54:03.209Z,99.90
2022-12-13T18:56:31.478Z,99.90
2022-12-13T19:01:45.019Z,99.90
2022-12-13T19:04:15.653Z,99.90
2022-12-13T19:06:44.083Z,99.90
2022-12-13T19:09:12.661Z,99.90
2022-12-13T19:11:40.895Z,99.90
2022-12-13T19:14:09.522Z,99.90
2022-12-13T19:16:38.079Z,99.90
2022-12-13T19:19:10.066Z,99.90
2022-12-13T19:21:40.623Z,99.90
2022-12-13T19:24:13.906Z,99.90
2022-12-13T19:26:45.504Z,99.90
2022-12-13T19:29:16.495Z,99.90
2022-12-13T19:31:45.424Z,99.90
2022-12-13T19:34:20.737Z,99.90
2022-12-13T19:36:49.681Z,99.90
2022-12-13T19:39:19.599Z,99.90
2022-12-13T19:41:49.357Z,99.90
2022-12-13T19:44:17.899Z,99.90
2022-12-13T19:46:49.202Z,99.90
2022-12-13T19:49:17.845Z,99.90
2022-12-13T19:51:46.733Z,99.90
2022-12-13T19:54:15.731Z,99.90
2022-12-13T19:56:45.346Z,99.90
2022-12-13T19:59:13.961Z,99.90
2022-12-13T20:01:44.053Z,99.90
2022-12-13T20:04:14.315Z,99.90
2022-12-13T20:06:53.111Z,99.90
2022-12-13T20:09:22.916Z,99.90
2022-12-13T20:11:51.325Z,99.90
2022-12-13T20:14:19.718Z,99.90
2022-12-13T20:16:51.226Z,99.90
2022-12-13T20:19:21.287Z,99.90
2022-12-13T20:21:54.962Z,99.90
2022-12-13T20:24:24.792Z,99.90
2022-12-13T20:26:52.973Z,99.90
2022-12-13T20:29:21.590Z,99.90
2022-12-13T20:31:53.727Z,99.90
2022-12-13T20:34:21.883Z,99.90
2022-12-13T20:36:50.851Z,99.90
2022-12-13T20:39:19.381Z,99.90
2022-12-13T20:41:48.358Z,99.90
2022-12-13T20:44:16.263Z,99.90
2022-12-13T20:46:45.294Z,99.90
2022-12-13T20:49:13.813Z,99.90
2022-12-13T20:51:45.985Z,99.90
2022-12-13T20:54:14.872Z,99.90
2022-12-13T20:56:43.467Z,99.90
2022-12-13T20:59:15.189Z,99.90
2022-12-13T21:01:45.164Z,99.90
2022-12-13T21:04:17.303Z,99.90
2022-12-13T21:06:46.630Z,99.90
2022-12-13T21:09:14.382Z,99.90
2022-12-13T21:11:46.311Z,99.90
2022-12-13T21:14:20.917Z,99.90
2022-12-13T21:17:02.959Z,99.90
2022-12-13T21:19:39.869Z,99.90
2022-12-13T21:22:08.958Z,99.90
2022-12-13T21:24:36.552Z,99.90
2022-12-13T21:27:06.531Z,99.90
2022-12-13T21:29:36.419Z,99.90
2022-12-13T21:32:04.168Z,99.90
2022-12-13T21:34:31.758Z,99.90
2022-12-13T21:36:58.960Z,99.90
2022-12-13T21:39:29.856Z,99.90
2022-12-13T21:41:57.823Z,99.90
2022-12-13T21:44:25.211Z,99.90
2022-12-13T21:47:11.995Z,99.90
2022-12-13T21:49:39.662Z,99.90
2022-12-13T21:52:06.991Z,99.90
2022-12-13T21:54:34.084Z,99.90
2022-12-13T21:57:22.930Z,99.90
2022-12-13T21:59:50.048Z,99.90
2022-12-13T22:02:18.995Z,99.90
2022-12-13T22:04:52.707Z,99.90
2022-12-13T22:07:26.495Z,99.90
2022-12-13T22:09:55.083Z,99.90
2022-12-13T22:12:24.010Z,99.90
2022-12-13T22:14:52.826Z,99.90
2022-12-13T22:17:26.917Z,99.90
2022-12-13T22:19:59.226Z,99.90
2022-12-13T22:22:26.673Z,99.90
2022-12-13T22:24:54.213Z,99.90
2022-12-13T22:27:26.084Z,99.90
2022-12-13T22:29:57.175Z,99.90
2022-12-13T22:32:27.533Z,99.90
2022-12-13T22:34:55.026Z,99.90
2022-12-13T22:37:22.632Z,99.90
2022-12-13T22:39:50.286Z,99.90
2022-12-13T22:42:17.370Z,99.90
2022-12-13T22:44:44.485Z,99.90
2022-12-13T22:47:11.613Z,99.90
2022-12-13T22:49:38.717Z,99.90
2022-12-13T22:52:05.971Z,99.90
2022-12-13T22:54:33.052Z,99.90
2022-12-13T22:57:00.129Z,99.90
2022-12-13T22:59:27.216Z,99.90
2022-12-13T23:02:02.130Z,99.90
2022-12-13T23:04:31.840Z,99.90
2022-12-13T23:06:59.278Z,99.90
2022-12-13T23:09:26.372Z,99.90
2022-12-13T23:12:11.934Z,99.90
2022-12-13T23:14:39.063Z,99.90
2022-12-13T23:17:06.645Z,99.90
2022-12-13T23:19:50.524Z,99.90
2022-12-13T23:22:25.510Z,99.90
2022-12-13T23:24:53.587Z,99.90
2022-12-13T23:27:23.164Z,99.90
2022-12-13T23:29:50.563Z,99.90
2022-12-13T23:32:18.405Z,99.90
2022-12-13T23:34:45.524Z,99.90
2022-12-13T23:37:12.723Z,99.90
2022-12-13T23:39:39.797Z,99.90
2022-12-13T23:42:07.337Z,99.90
2022-12-13T23:44:34.458Z,99.90
2022-12-13T23:47:01.555Z,99.90
2022-12-13T23:49:28.870Z,99.90
2022-12-13T23:51:56.013Z,99.90
2022-12-13T23:54:23.107Z,99.90
2022-12-13T23:56:50.182Z,99.90
2022-12-13T23:59:17.333Z,99.90
